Time;durP1;ratioP1;P1;durP2;ratioP2;P2;SDS_P1;SDS_P2;PMS_P1;PMS_P2;Temp;Humidity;BMP_temperature;BMP_pressure;BME280_temperature;BME280_humidity;BME280_pressure;Samples;Min_cycle;Max_cycle;Signal;HPM_P1;HPM_P2
2023/06/18 00:00:01;;;;;;;6.35;4.80;;;24.10;55.80;;;;;;5073424;28;20109;-72
2023/06/18 00:02:27;;;;;;;6.45;4.68;;;24.20;55.80;;;;;;5073008;28;20125;-73
2023/06/18 00:04:53;;;;;;;7.10;5.20;;;24.20;55.80;;;;;;5074040;28;20045;-73
2023/06/18 00:07:18;;;;;;;6.68;4.78;;;24.10;55.80;;;;;;5072286;28;20048;-73
2023/06/18 00:09:44;;;;;;;6.90;5.22;;;24.20;55.80;;;;;;5074070;28;20555;-73
2023/06/18 00:12:10;;;;;;;7.07;5.18;;;24.10;55.80;;;;;;5072977;28;20062;-72
2023/06/18 00:14:36;;;;;;;8.35;5.03;;;24.10;55.80;;;;;;5072785;28;20056;-72
2023/06/18 00:17:02;;;;;;;7.93;5.38;;;24.20;55.80;;;;;;5072565;28;20040;-73
2023/06/18 00:19:27;;;;;;;7.45;5.18;;;24.10;55.80;;;;;;5074002;28;20048;-74
2023/06/18 00:21:53;;;;;;;6.93;4.80;;;24.10;55.80;;;;;;5072989;28;20091;-73
2023/06/18 00:24:18;;;;;;;6.47;4.75;;;24.10;55.80;;;;;;5073733;28;20044;-73
2023/06/18 00:26:44;;;;;;;6.50;4.93;;;24.10;55.80;;;;;;5074042;28;20036;-73
2023/06/18 00:29:10;;;;;;;6.50;4.43;;;24.10;55.80;;;;;;5071047;28;20102;-73
2023/06/18 00:31:36;;;;;;;6.43;4.53;;;24.10;55.80;;;;;;5073957;28;20045;-73
2023/06/18 00:34:06;;;;;;;6.32;4.90;;;24.10;55.80;;;;;;5072119;28;20078;-73
2023/06/18 00:36:33;;;;;;;7.82;5.05;;;24.10;55.80;;;;;;5072992;28;20098;-73
2023/06/18 00:39:02;;;;;;;6.15;4.75;;;24.10;55.80;;;;;;5072334;28;20052;-73
2023/06/18 00:41:28;;;;;;;7.45;5.05;;;24.10;55.80;;;;;;5072266;28;20041;-73
2023/06/18 00:43:57;;;;;;;6.55;4.88;;;24.10;55.90;;;;;;5055729;28;20052;-73
2023/06/18 00:46:24;;;;;;;6.80;4.95;;;24.10;55.80;;;;;;5072422;28;20044;-73
2023/06/18 00:48:50;;;;;;;7.00;5.03;;;24.10;55.80;;;;;;5055000;28;20519;-73
2023/06/18 00:51:16;;;;;;;6.25;4.72;;;24.00;55.80;;;;;;5073293;28;20075;-73
2023/06/18 00:53:42;;;;;;;7.43;4.85;;;24.10;55.80;;;;;;5035530;28;20084;-73
2023/06/18 00:56:07;;;;;;;6.88;5.03;;;24.00;55.80;;;;;;5051143;28;20514;-73
2023/06/18 00:58:33;;;;;;;9.35;5.28;;;24.00;55.80;;;;;;5073309;28;20043;-73
2023/06/18 01:00:59;;;;;;;7.03;5.22;;;24.00;55.80;;;;;;5073079;28;20057;-73
2023/06/18 01:03:25;;;;;;;6.68;5.00;;;24.00;55.80;;;;;;5054162;28;20036;-73
2023/06/18 01:05:53;;;;;;;6.80;5.10;;;24.00;55.80;;;;;;5071686;28;20048;-73
2023/06/18 01:08:23;;;;;;;7.50;5.43;;;24.00;55.80;;;;;;5071485;28;20040;-73
2023/06/18 01:11:04;;;;;;;6.93;4.93;;;24.00;55.80;;;;;;5071089;28;20395;-73
2023/06/18 01:13:36;;;;;;;7.90;5.47;;;24.00;55.80;;;;;;5056641;28;20037;-73
2023/06/18 01:16:06;;;;;;;6.90;5.30;;;24.00;55.80;;;;;;5055168;28;20485;-73
2023/06/18 01:18:35;;;;;;;6.90;5.30;;;24.00;55.80;;;;;;5055143;28;20059;-73
2023/06/18 01:21:09;;;;;;;7.45;5.15;;;24.00;55.80;;;;;;5072282;28;20676;-73
2023/06/18 01:24:03;;;;;;;6.68;5.03;;;24.00;55.80;;;;;;5070682;28;20050;-73
2023/06/18 01:26:30;;;;;;;7.53;5.35;;;24.00;55.80;;;;;;5072086;28;20047;-73
2023/06/18 01:28:58;;;;;;;6.25;4.78;;;24.00;55.80;;;;;;5072640;28;20048;-74
2023/06/18 01:31:24;;;;;;;9.05;5.63;;;24.00;55.80;;;;;;5071004;28;20052;-73
2023/06/18 01:33:53;;;;;;;6.30;5.28;;;24.00;55.80;;;;;;5072700;28;20041;-74
2023/06/18 01:36:34;;;;;;;6.70;5.30;;;24.00;55.90;;;;;;5072118;28;20114;-73
2023/06/18 01:39:03;;;;;;;7.57;5.22;;;24.00;55.80;;;;;;5055235;28;20464;-73
2023/06/18 01:41:29;;;;;;;7.10;5.32;;;24.00;55.90;;;;;;5055222;28;20036;-74
2023/06/18 01:44:00;;;;;;;7.22;5.20;;;24.00;55.90;;;;;;5049848;28;20044;-74
2023/06/18 01:46:26;;;;;;;6.25;4.90;;;24.00;55.90;;;;;;5054388;28;20079;-74
2023/06/18 01:48:56;;;;;;;6.57;5.00;;;24.00;55.90;;;;;;5071452;28;20032;-73
2023/06/18 01:51:21;;;;;;;7.50;5.22;;;24.00;55.90;;;;;;5072532;28;20052;-74
2023/06/18 01:53:47;;;;;;;7.35;5.32;;;24.00;55.90;;;;;;5071766;28;20033;-73
2023/06/18 01:56:13;;;;;;;6.72;5.22;;;24.00;55.90;;;;;;5072333;28;20044;-73
2023/06/18 01:58:42;;;;;;;7.00;5.50;;;24.00;56.00;;;;;;5071660;28;20119;-72
2023/06/18 02:01:09;;;;;;;7.35;5.60;;;24.00;56.00;;;;;;5072148;28;20102;-73
2023/06/18 02:03:35;;;;;;;7.47;5.90;;;24.00;56.00;;;;;;5072185;28;20076;-73
2023/06/18 02:06:01;;;;;;;6.53;5.45;;;23.90;55.90;;;;;;5071215;28;20087;-73
2023/06/18 02:08:26;;;;;;;7.40;5.60;;;23.90;55.90;;;;;;5072493;28;20389;-73
2023/06/18 02:10:52;;;;;;;8.32;5.47;;;23.90;55.90;;;;;;5072400;28;20044;-72
2023/06/18 02:13:17;;;;;;;7.25;5.30;;;24.00;56.10;;;;;;5071121;28;20047;-72
2023/06/18 02:15:43;;;;;;;7.65;5.88;;;23.90;56.00;;;;;;5071050;28;20044;-72
2023/06/18 02:18:09;;;;;;;8.27;5.25;;;23.90;56.00;;;;;;5071775;28;20128;-73
2023/06/18 02:20:35;;;;;;;6.75;5.22;;;23.90;56.00;;;;;;5069938;28;20055;-73
2023/06/18 02:23:00;;;;;;;9.13;6.07;;;24.00;56.10;;;;;;5072059;28;20040;-73
2023/06/18 02:25:29;;;;;;;8.13;6.15;;;23.90;56.00;;;;;;5070582;28;20036;-73
2023/06/18 02:27:56;;;;;;;7.82;6.30;;;23.90;56.10;;;;;;5070241;28;20097;-73
2023/06/18 02:30:22;;;;;;;7.72;5.80;;;23.90;56.00;;;;;;5072346;28;20044;-72
2023/06/18 02:32:48;;;;;;;6.82;5.57;;;23.90;56.00;;;;;;5071211;28;20049;-73
2023/06/18 02:35:15;;;;;;;7.15;5.57;;;23.90;56.00;;;;;;5069993;28;20075;-73
2023/06/18 02:37:41;;;;;;;7.03;5.57;;;23.90;56.00;;;;;;5073169;28;20048;-73
2023/06/18 02:40:08;;;;;;;8.40;6.28;;;23.90;56.10;;;;;;5075524;28;20040;-73
2023/06/18 02:42:33;;;;;;;8.13;6.20;;;23.90;56.10;;;;;;5075427;28;20053;-73
2023/06/18 02:44:59;;;;;;;7.72;5.88;;;23.90;56.10;;;;;;5075403;28;20048;-72
2023/06/18 02:47:25;;;;;;;6.43;5.55;;;23.90;56.10;;;;;;5075834;28;20040;-73
2023/06/18 02:49:51;;;;;;;8.45;5.78;;;23.90;56.00;;;;;;5074890;28;20373;-73
2023/06/18 02:52:16;;;;;;;8.48;5.75;;;23.90;56.10;;;;;;5075255;28;20059;-73
2023/06/18 02:54:43;;;;;;;7.60;5.55;;;23.90;56.10;;;;;;5075647;28;20036;-72
2023/06/18 02:57:09;;;;;;;7.70;6.13;;;23.90;56.10;;;;;;5074195;28;20048;-73
2023/06/18 02:59:34;;;;;;;7.47;5.65;;;23.90;56.10;;;;;;5073854;28;20062;-72
2023/06/18 03:02:02;;;;;;;7.15;5.68;;;23.80;56.10;;;;;;5073031;28;20053;-73
2023/06/18 03:04:28;;;;;;;;;;;23.80;56.00;;;;;;5075642;28;20508;-73
2023/06/18 03:06:54;;;;;;;7.28;5.53;;;23.90;56.10;;;;;;5075582;28;19978;-72
2023/06/18 03:09:20;;;;;;;7.80;5.57;;;23.80;56.10;;;;;;5056040;28;20128;-72
2023/06/18 03:11:45;;;;;;;8.13;6.22;;;23.80;56.10;;;;;;5075403;28;20063;-72
2023/06/18 03:14:11;;;;;;;8.90;5.88;;;23.80;56.10;;;;;;5074945;28;20037;-72
2023/06/18 03:16:36;;;;;;;7.63;5.55;;;23.80;56.10;;;;;;5073256;28;20102;-72
2023/06/18 03:19:02;;;;;;;8.07;6.07;;;23.80;56.10;;;;;;5074676;28;20166;-72
2023/06/18 03:21:28;;;;;;;7.88;5.88;;;23.80;56.10;;;;;;5074898;28;20044;-72
2023/06/18 03:23:54;;;;;;;7.28;5.93;;;23.80;56.10;;;;;;5073189;28;20085;-72
2023/06/18 03:26:19;;;;;;;7.97;6.05;;;23.80;56.20;;;;;;5073467;28;20101;-72
2023/06/18 03:28:46;;;;;;;8.77;6.50;;;23.80;56.20;;;;;;5074847;28;20103;-73
2023/06/18 03:31:12;;;;;;;7.43;5.88;;;23.80;56.20;;;;;;5073949;28;20044;-72
2023/06/18 03:33:37;;;;;;;7.85;6.50;;;23.80;56.10;;;;;;5073609;28;20047;-72
2023/06/18 03:36:05;;;;;;;7.10;5.50;;;23.80;56.20;;;;;;5074874;28;20044;-72
2023/06/18 03:38:31;;;;;;;7.65;5.80;;;23.80;56.20;;;;;;5072844;28;20048;-72
2023/06/18 03:40:56;;;;;;;8.65;5.85;;;23.80;56.90;;;;;;5074410;28;20078;-72
2023/06/18 03:43:22;;;;;;;6.90;6.13;;;23.80;56.10;;;;;;5073466;28;20044;-72
2023/06/18 03:45:47;;;;;;;9.15;6.07;;;23.80;56.10;;;;;;5073758;28;20041;-72
2023/06/18 03:48:13;;;;;;;7.05;5.70;;;23.80;56.10;;;;;;5074469;28;20094;-72
2023/06/18 03:50:39;;;;;;;7.60;6.32;;;23.80;56.20;;;;;;5052562;28;20045;-72
2023/06/18 03:53:05;;;;;;;7.15;5.55;;;23.70;56.10;;;;;;5053548;28;20073;-73
2023/06/18 03:55:30;;;;;;;7.72;5.78;;;23.80;56.20;;;;;;5065808;28;20137;-73
2023/06/18 03:57:56;;;;;;;7.45;5.90;;;23.70;56.20;;;;;;5073106;28;20157;-72
2023/06/18 04:00:21;;;;;;;7.28;5.93;;;23.70;56.10;;;;;;5073429;28;20040;-72
2023/06/18 04:02:47;;;;;;;7.80;6.22;;;23.80;56.20;;;;;;5074228;28;20044;-72
2023/06/18 04:05:13;;;;;;;7.80;6.30;;;23.70;56.20;;;;;;5072342;28;20097;-72
2023/06/18 04:07:38;;;;;;;8.13;6.00;;;23.70;56.10;;;;;;5072125;28;20040;-72
2023/06/18 04:10:04;;;;;;;7.82;6.15;;;23.70;56.10;;;;;;5073796;28;20044;-72
2023/06/18 04:12:30;;;;;;;9.18;6.05;;;23.80;56.20;;;;;;5073455;28;20032;-72
2023/06/18 04:14:55;;;;;;;7.78;6.30;;;23.70;56.10;;;;;;5074009;28;20442;-72
2023/06/18 04:17:21;;;;;;;9.02;6.20;;;23.80;56.10;;;;;;5073675;28;20048;-72
2023/06/18 04:19:46;;;;;;;7.47;5.85;;;23.70;56.10;;;;;;5072711;28;20361;-72
2023/06/18 04:22:12;;;;;;;7.18;5.68;;;23.70;56.10;;;;;;5073575;28;20048;-72
2023/06/18 04:24:37;;;;;;;7.15;5.63;;;23.70;56.20;;;;;;5073856;28;20128;-72
2023/06/18 04:27:03;;;;;;;6.53;5.80;;;23.70;56.10;;;;;;5071439;28;20517;-73
2023/06/18 04:29:30;;;;;;;7.90;5.60;;;23.70;56.20;;;;;;5072320;28;20052;-72
2023/06/18 04:31:56;;;;;;;6.80;5.73;;;23.70;56.20;;;;;;5073915;28;20052;-72
2023/06/18 04:34:21;;;;;;;7.40;5.80;;;23.80;56.30;;;;;;5073273;28;20040;-72
2023/06/18 04:36:47;;;;;;;8.13;5.88;;;23.70;56.20;;;;;;5073631;28;20404;-72
2023/06/18 04:39:13;;;;;;;6.50;5.50;;;23.80;56.30;;;;;;5073616;28;20389;-72
2023/06/18 04:41:38;;;;;;;7.28;5.72;;;23.70;56.20;;;;;;5072711;28;20140;-72
2023/06/18 04:44:04;;;;;;;7.63;5.50;;;23.80;56.30;;;;;;5071850;28;20048;-71
2023/06/18 04:46:29;;;;;;;7.25;5.70;;;23.80;56.30;;;;;;5073390;28;20123;-73
2023/06/18 04:48:55;;;;;;;7.22;5.53;;;23.70;56.20;;;;;;5071617;28;20049;-72
2023/06/18 04:51:20;;;;;;;6.90;5.68;;;23.80;56.30;;;;;;5071664;28;20048;-72
2023/06/18 04:53:46;;;;;;;8.00;5.93;;;23.80;56.30;;;;;;5073539;28;20036;-73
2023/06/18 04:56:12;;;;;;;7.45;6.05;;;23.70;56.20;;;;;;5070974;28;20057;-73
2023/06/18 04:58:41;;;;;;;7.97;6.22;;;23.70;56.20;;;;;;5071792;28;20422;-73
2023/06/18 05:01:07;;;;;;;7.28;6.00;;;23.70;56.20;;;;;;5072440;28;20400;-72
2023/06/18 05:03:33;;;;;;;7.18;5.95;;;23.70;56.20;;;;;;5072233;28;20399;-72
2023/06/18 05:05:59;;;;;;;7.68;5.97;;;23.70;56.20;;;;;;5072909;28;20535;-70
2023/06/18 05:08:25;;;;;;;7.70;5.63;;;23.70;56.20;;;;;;5073338;28;20090;-79
2023/06/18 05:10:50;;;;;;;10.77;7.80;;;23.70;56.20;;;;;;5072400;28;20062;-80
2023/06/18 05:13:16;;;;;;;9.13;6.97;;;23.70;56.20;;;;;;5072671;28;20048;-80
2023/06/18 05:15:41;;;;;;;11.07;8.13;;;23.70;56.20;;;;;;5071793;28;20044;-81
2023/06/18 05:18:07;;;;;;;14.43;9.98;;;23.70;56.30;;;;;;5072516;28;20169;-82
2023/06/18 05:20:32;;;;;;;19.38;13.25;;;23.70;56.60;;;;;;5071628;28;20040;-82
2023/06/18 05:22:58;;;;;;;15.30;10.52;;;23.70;56.60;;;;;;5070764;28;20161;-81
2023/06/18 05:25:23;;;;;;;18.85;12.50;;;23.70;56.60;;;;;;5072861;28;20602;-82
2023/06/18 05:27:49;;;;;;;15.57;10.80;;;23.70;56.50;;;;;;5072693;28;20585;-82
2023/06/18 05:30:15;;;;;;;15.57;11.50;;;23.70;56.60;;;;;;5071728;28;20523;-82
2023/06/18 05:32:40;;;;;;;17.88;11.88;;;23.70;56.60;;;;;;5068640;28;20615;-82
2023/06/18 05:35:06;;;;;;;18.50;11.73;;;23.70;56.60;;;;;;5063592;28;20469;-82
2023/06/18 05:37:32;;;;;;;15.07;11.82;;;23.70;57.30;;;;;;5070763;28;20041;-81
2023/06/18 05:39:57;;;;;;;16.35;11.70;;;23.70;56.60;;;;;;5072282;28;20115;-76
2023/06/18 05:42:23;;;;;;;19.33;12.85;;;23.70;56.70;;;;;;5071330;28;20124;-77
2023/06/18 05:44:48;;;;;;;19.05;13.57;;;23.70;56.80;;;;;;5072130;28;20078;-75
2023/06/18 05:47:14;;;;;;;18.58;13.55;;;23.70;57.10;;;;;;5073225;28;20055;-74
2023/06/18 05:49:39;;;;;;;18.85;13.40;;;23.70;57.20;;;;;;5074981;28;20044;-76
2023/06/18 05:52:06;;;;;;;18.50;12.90;;;23.70;57.30;;;;;;5072782;28;20043;-77
2023/06/18 05:54:31;;;;;;;18.75;13.70;;;23.70;57.40;;;;;;5074376;28;20054;-77
2023/06/18 05:56:57;;;;;;;17.73;12.82;;;23.70;57.50;;;;;;5072701;28;20135;-76
2023/06/18 05:59:22;;;;;;;18.80;12.93;;;23.70;57.60;;;;;;5073558;28;20041;-74
2023/06/18 06:01:48;;;;;;;19.20;13.77;;;23.70;57.60;;;;;;5072726;28;20045;-77
2023/06/18 06:04:14;;;;;;;18.83;13.27;;;23.70;57.70;;;;;;5073891;28;20090;-78
2023/06/18 06:06:39;;;;;;;20.10;13.50;;;23.70;57.70;;;;;;5072393;28;20076;-76
2023/06/18 06:09:06;;;;;;;18.67;13.43;;;23.70;57.90;;;;;;5072269;28;20044;-80
2023/06/18 06:11:36;;;;;;;19.83;13.55;;;23.70;58.00;;;;;;5073051;28;20049;-81
2023/06/18 06:14:01;;;;;;;22.88;14.05;;;23.70;58.00;;;;;;5075886;28;20036;-82
2023/06/18 06:16:27;;;;;;;19.33;13.25;;;23.70;58.10;;;;;;5079065;28;20052;-81
2023/06/18 06:18:53;;;;;;;18.08;13.40;;;23.70;58.10;;;;;;5077281;28;20048;-84
2023/06/18 06:21:19;;;;;;;20.17;14.05;;;23.70;58.20;;;;;;5080023;28;20088;-84
2023/06/18 06:23:45;;;;;;;19.35;13.23;;;23.70;58.40;;;;;;5080486;28;20093;-82
2023/06/18 06:26:10;;;;;;;22.08;14.70;;;23.70;58.40;;;;;;5076729;28;20166;-68
2023/06/18 06:28:36;;;;;;;20.65;13.93;;;23.70;58.50;;;;;;5074367;28;20162;-77
2023/06/18 06:31:01;;;;;;;20.67;13.88;;;23.70;58.40;;;;;;5075873;28;20063;-80
2023/06/18 06:33:27;;;;;;;19.33;13.10;;;23.70;58.50;;;;;;5076475;28;20029;-81
2023/06/18 06:35:52;;;;;;;22.02;14.18;;;23.70;58.50;;;;;;5079153;28;20094;-79
2023/06/18 06:38:18;;;;;;;19.80;13.55;;;23.70;58.70;;;;;;5076762;28;20041;-67
2023/06/18 06:40:44;;;;;;;20.48;15.02;;;23.70;59.00;;;;;;5073170;28;20464;-68
2023/06/18 06:43:09;;;;;;;22.58;14.75;;;23.70;58.90;;;;;;5075285;28;20044;-71
2023/06/18 06:45:35;;;;;;;19.60;13.77;;;23.70;58.90;;;;;;5074835;28;20124;-71
2023/06/18 06:48:00;;;;;;;23.27;14.60;;;23.70;59.10;;;;;;5074371;28;20040;-69
2023/06/18 06:50:26;;;;;;;20.17;13.68;;;23.70;59.30;;;;;;5074257;28;20052;-68
2023/06/18 06:52:51;;;;;;;21.95;14.68;;;23.70;59.50;;;;;;5073619;28;20045;-69
2023/06/18 06:55:17;;;;;;;19.75;14.02;;;23.70;59.60;;;;;;5073846;28;20094;-69
2023/06/18 06:57:42;;;;;;;23.02;14.90;;;23.70;59.70;;;;;;5088231;28;20494;-68
2023/06/18 07:00:10;;;;;;;22.02;14.00;;;23.70;59.80;;;;;;5094992;28;20419;-69
2023/06/18 07:02:36;;;;;;;20.65;13.95;;;23.70;59.80;;;;;;5076481;28;20412;-70
2023/06/18 07:05:02;;;;;;;21.92;14.68;;;23.70;59.90;;;;;;5075460;28;20507;-70
2023/06/18 07:07:27;;;;;;;19.40;13.82;;;23.70;60.00;;;;;;5075686;28;20048;-72
2023/06/18 07:09:53;;;;;;;21.83;14.20;;;23.60;59.90;;;;;;5073509;28;20114;-72
2023/06/18 07:12:18;;;;;;;19.10;13.32;;;23.70;59.80;;;;;;5075329;28;20048;-71
2023/06/18 07:14:44;;;;;;;20.17;12.32;;;23.60;59.80;;;;;;5075615;28;20392;-71
2023/06/18 07:17:10;;;;;;;16.38;12.77;;;23.70;59.80;;;;;;5074470;28;20044;-71
2023/06/18 07:19:35;;;;;;;19.70;12.88;;;23.70;60.00;;;;;;5074154;28;20060;-72
2023/06/18 07:22:01;;;;;;;18.42;12.60;;;23.70;59.80;;;;;;5074792;28;20040;-72
2023/06/18 07:24:26;;;;;;;16.60;11.82;;;23.70;59.70;;;;;;5074355;28;20048;-73
2023/06/18 07:26:52;;;;;;;18.08;12.10;;;23.70;59.60;;;;;;5075496;28;20067;-73
2023/06/18 07:29:17;;;;;;;16.65;12.55;;;23.70;59.70;;;;;;5074093;28;20064;-73
2023/06/18 07:31:43;;;;;;;16.55;12.00;;;23.70;59.70;;;;;;5075217;28;20052;-73
2023/06/18 07:34:09;;;;;;;17.45;12.13;;;23.70;59.70;;;;;;5073904;28;20048;-72
2023/06/18 07:36:35;;;;;;;16.35;12.18;;;23.70;59.50;;;;;;5073038;28;20567;-72
2023/06/18 07:39:01;;;;;;;18.63;11.98;;;23.70;59.60;;;;;;5073252;28;20566;-72
2023/06/18 07:41:26;;;;;;;16.85;12.27;;;23.70;59.70;;;;;;5073667;28;20041;-72
2023/06/18 07:43:52;;;;;;;16.60;11.93;;;23.70;59.70;;;;;;5074426;28;20041;-73
2023/06/18 07:46:19;;;;;;;18.70;12.15;;;23.70;59.80;;;;;;5073795;28;20036;-73
2023/06/18 07:48:44;;;;;;;20.98;12.60;;;23.70;59.90;;;;;;5073534;28;20040;-73
2023/06/18 07:51:10;;;;;;;24.02;14.02;;;23.70;60.00;;;;;;5073489;28;20401;-75
2023/06/18 07:53:36;;;;;;;18.13;12.65;;;23.70;60.00;;;;;;5074324;28;20369;-70
2023/06/18 07:56:01;;;;;;;20.48;13.55;;;23.70;60.10;;;;;;5082995;28;20562;-73
2023/06/18 07:58:27;;;;;;;19.58;12.98;;;23.70;60.30;;;;;;5092488;28;20403;-73
2023/06/18 08:00:52;;;;;;;25.33;13.85;;;23.70;60.50;;;;;;5082794;28;20048;-73
2023/06/18 08:03:18;;;;;;;20.20;13.88;;;23.70;60.60;;;;;;5072932;28;20079;-72
2023/06/18 08:05:43;;;;;;;23.65;13.40;;;23.80;60.70;;;;;;5073572;28;20048;-75
2023/06/18 08:08:09;;;;;;;20.40;12.77;;;23.80;60.80;;;;;;5072401;28;20047;-76
2023/06/18 08:10:35;;;;;;;21.60;12.60;;;23.80;60.80;;;;;;5073266;28;20476;-75
2023/06/18 08:13:00;;;;;;;22.88;13.10;;;23.80;60.90;;;;;;5073275;28;20033;-74
2023/06/18 08:15:26;;;;;;;18.90;12.25;;;23.80;60.90;;;;;;5074309;28;20556;-76
2023/06/18 08:17:52;;;;;;;19.67;13.38;;;23.90;61.00;;;;;;5074047;28;20044;-73
2023/06/18 08:20:18;;;;;;;19.05;12.45;;;23.90;61.00;;;;;;5072520;28;20036;-74
2023/06/18 08:22:43;;;;;;;18.42;12.35;;;23.90;61.00;;;;;;5072500;28;20081;-73
2023/06/18 08:25:09;;;;;;;16.45;12.27;;;23.90;60.90;;;;;;5072232;28;20109;-75
2023/06/18 08:27:35;;;;;;;16.73;11.98;;;23.90;60.90;;;;;;5069984;28;20045;-70
2023/06/18 08:30:00;;;;;;;16.48;11.68;;;23.90;60.90;;;;;;5073091;28;20037;-72
2023/06/18 08:32:26;;;;;;;16.73;11.45;;;23.90;60.80;;;;;;5072416;28;20492;-74
2023/06/18 08:34:52;;;;;;;17.63;10.90;;;23.90;60.60;;;;;;5071265;28;20109;-73
2023/06/18 08:37:18;;;;;;;16.75;10.65;;;23.90;60.30;;;;;;5073073;28;20510;-73
2023/06/18 08:39:44;;;;;;;18.02;11.68;;;24.00;60.10;;;;;;5072944;28;20127;-73
2023/06/18 08:42:09;;;;;;;15.63;11.20;;;24.00;59.90;;;;;;5071961;28;20045;-73
2023/06/18 08:44:35;;;;;;;14.73;10.63;;;24.00;59.90;;;;;;5073537;28;20111;-73
2023/06/18 08:47:03;;;;;;;12.60;10.13;;;24.00;59.60;;;;;;5071392;28;20484;-73
2023/06/18 08:49:31;;;;;;;16.80;10.07;;;24.00;59.30;;;;;;5072348;28;20394;-73
2023/06/18 08:51:58;;;;;;;13.27;9.80;;;24.00;59.30;;;;;;5055478;28;20560;-74
2023/06/18 08:54:27;;;;;;;17.63;10.40;;;24.00;59.00;;;;;;5054596;28;20119;-74
2023/06/18 08:57:06;;;;;;;12.88;9.13;;;24.00;58.70;;;;;;5055246;28;20052;-74
2023/06/18 08:59:32;;;;;;;13.02;8.02;;;24.00;58.20;;;;;;5056482;28;20119;-74
2023/06/18 09:01:58;;;;;;;12.65;9.15;;;24.00;57.70;;;;;;5054062;28;20040;-74
2023/06/18 09:04:23;;;;;;;11.57;7.70;;;24.00;57.50;;;;;;5055105;28;20484;-74
2023/06/18 09:06:49;;;;;;;11.77;7.80;;;24.10;57.40;;;;;;5055133;28;20470;-72
2023/06/18 09:09:15;;;;;;;13.05;8.57;;;24.00;57.20;;;;;;5053877;28;20040;-72
2023/06/18 09:11:40;;;;;;;11.10;8.45;;;24.10;57.10;;;;;;5073044;28;20042;-73
2023/06/18 09:14:06;;;;;;;11.52;7.95;;;24.10;57.00;;;;;;5072757;28;20393;-73
2023/06/18 09:16:31;;;;;;;11.00;8.07;;;24.00;56.80;;;;;;5072399;28;20048;-78
2023/06/18 09:18:57;;;;;;;12.90;8.35;;;24.00;56.80;;;;;;5070983;28;20480;-78
2023/06/18 09:21:42;;;;;;;12.45;9.02;;;24.10;55.90;;;;;;5055301;28;20048;-78
2023/06/18 09:24:22;;;;;;;12.05;7.90;;;24.10;55.00;;;;;;5072077;28;20044;-78
2023/06/18 09:26:50;;;;;;;11.77;8.68;;;24.10;55.10;;;;;;5072988;28;20048;-78
2023/06/18 09:29:15;;;;;;;13.88;8.77;;;24.10;54.80;;;;;;5070105;28;20064;-78
2023/06/18 09:31:44;;;;;;;11.93;8.10;;;24.10;54.60;;;;;;5072689;28;20052;-78
2023/06/18 09:34:17;;;;;;;11.73;8.80;;;24.10;54.10;;;;;;5072449;28;20047;-78
2023/06/18 09:36:44;;;;;;;11.57;8.18;;;24.10;53.50;;;;;;5071407;28;20052;-78
2023/06/18 09:39:19;;;;;;;11.80;7.90;;;24.10;53.40;;;;;;5070676;28;20396;-78
2023/06/18 09:41:49;;;;;;;12.52;7.88;;;24.20;52.70;;;;;;5071288;28;20052;-78
2023/06/18 09:44:15;;;;;;;10.00;7.40;;;24.20;52.50;;;;;;5071585;28;20503;-78
2023/06/18 09:46:58;;;;;;;9.93;7.30;;;24.20;52.20;;;;;;5071817;28;20041;-79
2023/06/18 09:49:25;;;;;;;11.70;7.20;;;24.20;51.60;;;;;;5071288;28;20045;-82
2023/06/18 09:51:51;;;;;;;11.10;6.88;;;24.20;51.60;;;;;;5071806;28;20404;-82
2023/06/18 09:54:17;;;;;;;11.65;7.57;;;24.20;51.40;;;;;;5070749;28;20036;-82
2023/06/18 09:56:57;;;;;;;9.13;7.07;;;24.20;51.30;;;;;;5070993;28;20052;-83
2023/06/18 09:59:23;;;;;;;12.43;7.07;;;24.20;51.20;;;;;;5072643;28;20044;-83
2023/06/18 10:01:48;;;;;;;10.35;6.63;;;24.30;51.20;;;;;;5073090;28;20230;-82
2023/06/18 10:04:14;;;;;;;10.20;7.07;;;24.30;51.00;;;;;;5070742;28;20078;-83
2023/06/18 10:06:40;;;;;;;9.73;6.53;;;24.30;50.80;;;;;;5072643;28;20125;-84
2023/06/18 10:09:06;;;;;;;10.23;7.03;;;24.30;50.70;;;;;;5071953;28;20108;-84
2023/06/18 10:11:32;;;;;;;10.05;6.70;;;24.40;50.70;;;;;;5053906;28;20153;-83
2023/06/18 10:14:05;;;;;;;9.85;7.13;;;24.40;50.50;;;;;;5072069;28;20523;-82
2023/06/18 10:16:30;;;;;;;9.13;6.18;;;24.40;50.50;;;;;;5072289;28;20049;-82
2023/06/18 10:19:14;;;;;;;10.88;7.10;;;24.40;50.40;;;;;;5053580;28;20036;-82
2023/06/18 10:21:57;;;;;;;10.07;7.25;;;24.40;50.50;;;;;;5070619;28;20052;-82
2023/06/18 10:24:24;;;;;;;8.05;5.90;;;24.40;50.40;;;;;;5050780;28;20045;-81
2023/06/18 10:26:49;;;;;;;12.17;6.83;;;24.50;50.40;;;;;;5050199;28;20531;-81
2023/06/18 10:29:15;;;;;;;10.93;6.30;;;24.50;50.30;;;;;;5050152;28;20049;-82
2023/06/18 10:31:41;;;;;;;9.13;6.53;;;24.50;50.20;;;;;;5067449;28;20500;-82
2023/06/18 10:34:07;;;;;;;10.10;6.65;;;24.50;50.80;;;;;;5057256;28;20075;-82
2023/06/18 10:36:33;;;;;;;8.73;6.50;;;24.50;49.90;;;;;;5071171;28;20549;-82
2023/06/18 10:38:59;;;;;;;9.73;7.07;;;24.60;49.80;;;;;;5034044;28;20043;-83
2023/06/18 10:41:24;;;;;;;8.85;6.45;;;24.50;49.70;;;;;;5054208;28;20134;-72
2023/06/18 10:43:51;;;;;;;8.25;6.72;;;24.60;49.60;;;;;;5070610;28;20032;-73
2023/06/18 10:46:17;;;;;;;9.05;6.93;;;24.60;49.70;;;;;;5086327;28;20407;-73
2023/06/18 10:49:19;;;;;;;10.25;7.20;;;24.60;50.20;;;;;;5070400;28;20512;-74
2023/06/18 10:51:57;;;;;;;9.48;7.22;;;24.60;50.80;;;;;;5070462;28;20393;-73
2023/06/18 10:54:23;;;;;;;13.02;7.38;;;24.60;51.00;;;;;;5070963;28;20086;-73
2023/06/18 10:56:58;;;;;;;12.43;7.20;;;24.50;51.20;;;;;;5071998;28;20044;-73
2023/06/18 10:59:44;;;;;;;8.63;6.53;;;24.60;51.50;;;;;;5074034;28;20044;-78
2023/06/18 11:02:13;;;;;;;11.30;7.45;;;24.50;51.60;;;;;;5074491;28;20344;-76
2023/06/18 11:04:39;;;;;;;7.60;6.32;;;24.50;51.60;;;;;;5075306;28;20071;-74
2023/06/18 11:07:23;;;;;;;8.02;6.47;;;24.50;51.70;;;;;;5073322;28;20118;-74
2023/06/18 11:09:59;;;;;;;11.07;6.82;;;24.60;52.00;;;;;;5071705;28;20434;-75
2023/06/18 11:12:29;;;;;;;12.73;7.35;;;24.60;52.20;;;;;;5071933;28;20052;-70
2023/06/18 11:15:17;;;;;;;9.90;6.78;;;24.60;52.30;;;;;;5072960;28;20058;-71
2023/06/18 11:17:52;;;;;;;;;;;24.60;52.60;;;;;;5074733;28;20040;-71
2023/06/18 11:20:21;;;;;;;9.02;7.00;;;24.60;52.70;;;;;;5073972;28;20011;-72
2023/06/18 11:22:47;;;;;;;12.35;6.97;;;24.50;52.70;;;;;;5072850;28;20037;-76
2023/06/18 11:25:15;;;;;;;9.55;6.47;;;24.60;52.70;;;;;;5073856;28;20495;-76
2023/06/18 11:27:45;;;;;;;8.10;6.30;;;24.60;52.70;;;;;;5073333;28;20067;-76
2023/06/18 11:30:12;;;;;;;8.38;7.03;;;24.60;52.90;;;;;;5073294;28;20056;-76
2023/06/18 11:32:38;;;;;;;8.85;6.47;;;24.60;53.00;;;;;;5071789;28;20621;-77
2023/06/18 11:35:06;;;;;;;9.52;6.45;;;24.60;53.00;;;;;;5068103;28;20037;-76
2023/06/18 11:37:31;;;;;;;;;;;24.60;53.20;;;;;;5074027;28;20586;-77
2023/06/18 11:39:57;;;;;;;8.70;6.90;;;24.60;53.30;;;;;;5055998;28;19924;-77
2023/06/18 11:42:25;;;;;;;8.43;6.10;;;24.60;53.30;;;;;;5055863;28;20048;-75
2023/06/18 11:44:58;;;;;;;10.02;6.22;;;24.60;53.40;;;;;;5074314;28;20115;-75
2023/06/18 11:47:23;;;;;;;11.02;6.47;;;24.60;53.60;;;;;;5074610;28;20060;-75
2023/06/18 11:49:51;;;;;;;8.57;6.50;;;24.60;53.60;;;;;;5073328;28;20033;-75
2023/06/18 11:52:18;;;;;;;7.85;6.18;;;24.60;53.60;;;;;;5071545;28;20044;-75
2023/06/18 11:54:44;;;;;;;9.15;6.55;;;24.60;53.70;;;;;;5074355;28;20465;-74
2023/06/18 11:57:10;;;;;;;9.50;6.28;;;24.60;53.80;;;;;;5072541;28;20052;-74
2023/06/18 11:59:36;;;;;;;9.50;6.30;;;24.60;53.90;;;;;;5070037;28;20041;-73
2023/06/18 12:02:15;;;;;;;7.90;5.88;;;24.60;54.00;;;;;;5068721;28;20044;-73
2023/06/18 12:04:41;;;;;;;8.38;6.20;;;24.70;54.10;;;;;;5070510;28;20075;-73
2023/06/18 12:07:07;;;;;;;9.13;6.15;;;24.60;54.00;;;;;;5055432;28;20457;-75
2023/06/18 12:09:36;;;;;;;9.75;6.25;;;24.70;54.20;;;;;;5067157;28;20048;-73
2023/06/18 12:12:07;;;;;;;10.20;5.88;;;24.70;54.20;;;;;;5074314;28;20041;-76
2023/06/18 12:14:44;;;;;;;8.57;5.93;;;24.70;54.30;;;;;;5071209;28;20064;-70
2023/06/18 12:17:33;;;;;;;9.18;5.90;;;24.70;54.30;;;;;;5056533;28;20060;-70
2023/06/18 12:20:07;;;;;;;9.00;6.20;;;24.70;54.40;;;;;;5070182;28;20029;-70
2023/06/18 12:22:33;;;;;;;9.52;6.20;;;24.70;54.30;;;;;;5056446;28;20047;-70
2023/06/18 12:24:59;;;;;;;8.68;5.80;;;24.70;54.30;;;;;;5054754;28;20040;-70
2023/06/18 12:27:25;;;;;;;7.70;5.90;;;24.70;54.40;;;;;;5073376;28;20400;-71
2023/06/18 12:29:58;;;;;;;7.95;5.43;;;24.70;54.40;;;;;;5055186;28;20052;-70
2023/06/18 12:32:24;;;;;;;8.15;5.85;;;24.70;54.40;;;;;;5067299;28;20048;-70
2023/06/18 12:34:49;;;;;;;7.85;5.70;;;24.70;54.30;;;;;;5071747;28;20041;-67
2023/06/18 12:37:15;;;;;;;6.93;5.38;;;24.80;54.40;;;;;;5061632;28;20040;-67
2023/06/18 12:40:10;;;;;;;7.70;5.70;;;24.80;54.50;;;;;;5062637;28;20036;-67